sensor_id;sensor_type;location;lat;lon;timestamp;pressure;altitude;pressure_sealevel;temperature;humidity
56330;BME280;42236;48.058;10.632;2023-09-30T00:00:01;95566.88;;;16.68;85.12
56330;BME280;42236;48.058;10.632;2023-09-30T00:02:47;95562.22;;;16.69;84.96
56330;BME280;42236;48.058;10.632;2023-09-30T00:05:32;95564.94;;;16.69;84.51
56330;BME280;42236;48.058;10.632;2023-09-30T00:08:18;95570.75;;;16.67;84.83
56330;BME280;42236;48.058;10.632;2023-09-30T00:11:05;95577.00;;;16.68;84.78
56330;BME280;42236;48.058;10.632;2023-09-30T00:13:51;95578.91;;;16.67;84.66
56330;BME280;42236;48.058;10.632;2023-09-30T00:16:36;95579.63;;;16.64;85.13
56330;BME280;42236;48.058;10.632;2023-09-30T00:19:22;95573.41;;;16.63;84.62
56330;BME280;42236;48.058;10.632;2023-09-30T00:22:08;95577.28;;;16.62;85.07
56330;BME280;42236;48.058;10.632;2023-09-30T00:24:53;95576.56;;;16.66;84.65
56330;BME280;42236;48.058;10.632;2023-09-30T00:27:39;95561.78;;;16.67;84.70
56330;BME280;42236;48.058;10.632;2023-09-30T00:30:25;95567.66;;;16.69;84.12
56330;BME280;42236;48.058;10.632;2023-09-30T00:33:10;95575.13;;;16.72;83.83
56330;BME280;42236;48.058;10.632;2023-09-30T00:35:56;95574.72;;;16.70;84.22
56330;BME280;42236;48.058;10.632;2023-09-30T00:38:42;95575.50;;;16.70;84.29
56330;BME280;42236;48.058;10.632;2023-09-30T00:41:27;95577.84;;;16.72;84.60
56330;BME280;42236;48.058;10.632;2023-09-30T00:44:13;95573.91;;;16.69;84.95
56330;BME280;42236;48.058;10.632;2023-09-30T00:46:59;95567.22;;;16.67;84.69
56330;BME280;42236;48.058;10.632;2023-09-30T00:49:45;95575.34;;;16.63;84.93
56330;BME280;42236;48.058;10.632;2023-09-30T00:52:31;95573.69;;;16.58;85.05
56330;BME280;42236;48.058;10.632;2023-09-30T00:55:18;95568.06;;;16.51;85.47
56330;BME280;42236;48.058;10.632;2023-09-30T00:58:05;95578.47;;;16.46;85.60
56330;BME280;42236;48.058;10.632;2023-09-30T01:00:53;95575.19;;;16.40;85.95
56330;BME280;42236;48.058;10.632;2023-09-30T01:03:39;95571.97;;;16.34;85.97
56330;BME280;42236;48.058;10.632;2023-09-30T01:06:25;95569.59;;;16.33;86.14
56330;BME280;42236;48.058;10.632;2023-09-30T01:09:11;95559.41;;;16.30;86.26
56330;BME280;42236;48.058;10.632;2023-09-30T01:11:58;95559.06;;;16.31;85.88
56330;BME280;42236;48.058;10.632;2023-09-30T01:14:43;95557.84;;;16.29;85.77
56330;BME280;42236;48.058;10.632;2023-09-30T01:17:30;95559.34;;;16.26;85.92
56330;BME280;42236;48.058;10.632;2023-09-30T01:20:15;95551.97;;;16.27;85.76
56330;BME280;42236;48.058;10.632;2023-09-30T01:23:02;95552.41;;;16.29;85.67
56330;BME280;42236;48.058;10.632;2023-09-30T01:25:48;95555.53;;;16.31;85.54
56330;BME280;42236;48.058;10.632;2023-09-30T01:28:35;95556.78;;;16.33;85.21
56330;BME280;42236;48.058;10.632;2023-09-30T01:31:21;95559.91;;;16.35;85.51
56330;BME280;42236;48.058;10.632;2023-09-30T01:34:07;95566.09;;;16.32;86.15
56330;BME280;42236;48.058;10.632;2023-09-30T01:36:53;95562.59;;;16.32;86.25
56330;BME280;42236;48.058;10.632;2023-09-30T01:39:39;95559.41;;;16.30;85.79
56330;BME280;42236;48.058;10.632;2023-09-30T01:42:24;95560.97;;;16.31;85.84
56330;BME280;42236;48.058;10.632;2023-09-30T01:45:11;95560.63;;;16.32;86.21
56330;BME280;42236;48.058;10.632;2023-09-30T01:47:57;95554.84;;;16.34;85.96
56330;BME280;42236;48.058;10.632;2023-09-30T01:50:42;95558.00;;;16.36;86.11
56330;BME280;42236;48.058;10.632;2023-09-30T01:53:28;95563.88;;;16.38;85.74
56330;BME280;42236;48.058;10.632;2023-09-30T01:56:14;95558.69;;;16.33;85.79
56330;BME280;42236;48.058;10.632;2023-09-30T01:58:59;95560.56;;;16.29;85.47
56330;BME280;42236;48.058;10.632;2023-09-30T02:01:45;95564.69;;;16.23;86.17
56330;BME280;42236;48.058;10.632;2023-09-30T02:04:31;95570.75;;;16.16;86.39
56330;BME280;42236;48.058;10.632;2023-09-30T02:07:17;95561.81;;;16.15;86.62
56330;BME280;42236;48.058;10.632;2023-09-30T02:10:03;95568.47;;;16.18;86.83
56330;BME280;42236;48.058;10.632;2023-09-30T02:12:48;95572.44;;;16.20;86.63
56330;BME280;42236;48.058;10.632;2023-09-30T02:15:34;95554.97;;;16.21;86.90
56330;BME280;42236;48.058;10.632;2023-09-30T02:18:20;95564.63;;;16.19;86.80
56330;BME280;42236;48.058;10.632;2023-09-30T02:21:05;95558.91;;;16.08;87.06
56330;BME280;42236;48.058;10.632;2023-09-30T02:23:51;95561.47;;;16.01;87.19
56330;BME280;42236;48.058;10.632;2023-09-30T02:26:40;95555.06;;;15.93;88.11
56330;BME280;42236;48.058;10.632;2023-09-30T02:29:26;95556.84;;;15.86;87.95
56330;BME280;42236;48.058;10.632;2023-09-30T02:32:11;95546.56;;;15.79;88.64
56330;BME280;42236;48.058;10.632;2023-09-30T02:34:59;95558.03;;;15.72;88.49
56330;BME280;42236;48.058;10.632;2023-09-30T02:37:45;95559.44;;;15.66;89.31
56330;BME280;42236;48.058;10.632;2023-09-30T02:40:30;95560.81;;;15.60;89.50
56330;BME280;42236;48.058;10.632;2023-09-30T02:43:16;95555.56;;;15.51;89.98
56330;BME280;42236;48.058;10.632;2023-09-30T02:46:02;95554.34;;;15.49;90.12
56330;BME280;42236;48.058;10.632;2023-09-30T02:48:47;95548.91;;;15.49;89.97
56330;BME280;42236;48.058;10.632;2023-09-30T02:51:33;95555.47;;;15.48;90.24
56330;BME280;42236;48.058;10.632;2023-09-30T02:54:19;95556.16;;;15.45;90.37
56330;BME280;42236;48.058;10.632;2023-09-30T02:57:05;95547.28;;;15.48;90.00
56330;BME280;42236;48.058;10.632;2023-09-30T02:59:50;95555.91;;;15.50;89.79
56330;BME280;42236;48.058;10.632;2023-09-30T03:02:39;95567.22;;;15.52;90.07
56330;BME280;42236;48.058;10.632;2023-09-30T03:05:25;95559.16;;;15.55;89.69
56330;BME280;42236;48.058;10.632;2023-09-30T03:08:12;95568.53;;;15.58;89.69
56330;BME280;42236;48.058;10.632;2023-09-30T03:10:58;95560.38;;;15.58;89.66
56330;BME280;42236;48.058;10.632;2023-09-30T03:13:43;95567.31;;;15.55;89.76
56330;BME280;42236;48.058;10.632;2023-09-30T03:16:29;95562.22;;;15.54;89.82
56330;BME280;42236;48.058;10.632;2023-09-30T03:19:16;95563.72;;;15.51;90.02
56330;BME280;42236;48.058;10.632;2023-09-30T03:22:02;95568.34;;;15.51;89.73
56330;BME280;42236;48.058;10.632;2023-09-30T03:24:50;95570.66;;;15.49;90.25
56330;BME280;42236;48.058;10.632;2023-09-30T03:27:36;95568.16;;;15.44;90.19
56330;BME280;42236;48.058;10.632;2023-09-30T03:30:21;95564.56;;;15.40;90.75
56330;BME280;42236;48.058;10.632;2023-09-30T03:33:07;95561.41;;;15.38;90.97
56330;BME280;42236;48.058;10.632;2023-09-30T03:35:53;95563.34;;;15.37;90.34
56330;BME280;42236;48.058;10.632;2023-09-30T03:38:39;95572.09;;;15.30;91.14
56330;BME280;42236;48.058;10.632;2023-09-30T03:41:25;95562.34;;;15.29;91.25
56330;BME280;42236;48.058;10.632;2023-09-30T03:44:10;95569.25;;;15.27;91.39
56330;BME280;42236;48.058;10.632;2023-09-30T03:46:56;95579.72;;;15.25;91.25
56330;BME280;42236;48.058;10.632;2023-09-30T03:49:44;95574.63;;;15.23;91.25
56330;BME280;42236;48.058;10.632;2023-09-30T03:52:33;95569.63;;;15.25;91.71
56330;BME280;42236;48.058;10.632;2023-09-30T03:55:19;95571.44;;;15.21;91.57
56330;BME280;42236;48.058;10.632;2023-09-30T03:58:06;95573.72;;;15.19;91.73
56330;BME280;42236;48.058;10.632;2023-09-30T04:00:53;95565.13;;;15.17;91.73
56330;BME280;42236;48.058;10.632;2023-09-30T04:03:40;95573.63;;;15.15;92.31
56330;BME280;42236;48.058;10.632;2023-09-30T04:06:26;95564.94;;;15.10;92.41
56330;BME280;42236;48.058;10.632;2023-09-30T04:09:13;95565.63;;;15.07;92.81
56330;BME280;42236;48.058;10.632;2023-09-30T04:11:58;95566.31;;;15.04;92.92
56330;BME280;42236;48.058;10.632;2023-09-30T04:14:44;95576.22;;;14.96;92.93
56330;BME280;42236;48.058;10.632;2023-09-30T04:17:30;95578.28;;;14.87;93.16
56330;BME280;42236;48.058;10.632;2023-09-30T04:20:16;95582.09;;;14.86;93.08
56330;BME280;42236;48.058;10.632;2023-09-30T04:23:07;95584.28;;;14.80;93.42
56330;BME280;42236;48.058;10.632;2023-09-30T04:25:55;95582.06;;;14.70;94.08
56330;BME280;42236;48.058;10.632;2023-09-30T04:28:41;95586.81;;;14.61;94.63
56330;BME280;42236;48.058;10.632;2023-09-30T04:31:28;95580.06;;;14.55;95.32
56330;BME280;42236;48.058;10.632;2023-09-30T04:34:14;95576.41;;;14.50;94.92
56330;BME280;42236;48.058;10.632;2023-09-30T04:37:00;95572.91;;;14.50;94.75
56330;BME280;42236;48.058;10.632;2023-09-30T04:39:46;95574.03;;;14.49;94.39
56330;BME280;42236;48.058;10.632;2023-09-30T04:42:31;95576.66;;;14.45;94.12
56330;BME280;42236;48.058;10.632;2023-09-30T04:45:17;95578.34;;;14.38;94.54
56330;BME280;42236;48.058;10.632;2023-09-30T04:48:05;95582.75;;;14.30;94.75
56330;BME280;42236;48.058;10.632;2023-09-30T04:50:51;95576.09;;;14.27;95.11
56330;BME280;42236;48.058;10.632;2023-09-30T04:53:37;95570.31;;;14.29;94.53
56330;BME280;42236;48.058;10.632;2023-09-30T04:56:23;95575.75;;;14.29;94.38
56330;BME280;42236;48.058;10.632;2023-09-30T04:59:09;95572.91;;;14.25;94.07
56330;BME280;42236;48.058;10.632;2023-09-30T05:01:54;95581.88;;;14.26;94.71
56330;BME280;42236;48.058;10.632;2023-09-30T05:04:41;95581.06;;;14.25;93.97
56330;BME280;42236;48.058;10.632;2023-09-30T05:07:27;95581.88;;;14.26;93.59
56330;BME280;42236;48.058;10.632;2023-09-30T05:10:14;95581.06;;;14.25;94.01
56330;BME280;42236;48.058;10.632;2023-09-30T05:13:02;95583.44;;;14.27;93.90
56330;BME280;42236;48.058;10.632;2023-09-30T05:15:49;95601.75;;;14.30;93.71
56330;BME280;42236;48.058;10.632;2023-09-30T05:18:34;95608.31;;;14.29;93.57
56330;BME280;42236;48.058;10.632;2023-09-30T05:21:20;95608.31;;;14.29;93.35
56330;BME280;42236;48.058;10.632;2023-09-30T05:24:07;95631.38;;;14.23;93.12
56330;BME280;42236;48.058;10.632;2023-09-30T05:26:52;95628.91;;;14.18;92.75
56330;BME280;42236;48.058;10.632;2023-09-30T05:29:38;95631.16;;;14.16;93.32
56330;BME280;42236;48.058;10.632;2023-09-30T05:32:24;95621.13;;;14.16;93.91
56330;BME280;42236;48.058;10.632;2023-09-30T05:35:12;95632.84;;;14.20;94.17
56330;BME280;42236;48.058;10.632;2023-09-30T05:37:58;95631.84;;;14.25;94.14
56330;BME280;42236;48.058;10.632;2023-09-30T05:40:44;95631.59;;;14.30;94.17
56330;BME280;42236;48.058;10.632;2023-09-30T05:43:29;95628.66;;;14.35;94.07
56330;BME280;42236;48.058;10.632;2023-09-30T05:46:15;95633.44;;;14.38;94.11
56330;BME280;42236;48.058;10.632;2023-09-30T05:49:01;95620.75;;;14.42;94.23
56330;BME280;42236;48.058;10.632;2023-09-30T05:51:47;95618.25;;;14.49;93.93
56330;BME280;42236;48.058;10.632;2023-09-30T05:54:33;95625.53;;;14.58;93.84
56330;BME280;42236;48.058;10.632;2023-09-30T05:57:18;95630.97;;;14.58;93.33
56330;BME280;42236;48.058;10.632;2023-09-30T06:00:04;95635.25;;;14.59;93.83
56330;BME280;42236;48.058;10.632;2023-09-30T06:03:00;95630.72;;;14.63;93.25
56330;BME280;42236;48.058;10.632;2023-09-30T06:05:45;95638.53;;;14.64;93.64
56330;BME280;42236;48.058;10.632;2023-09-30T06:08:31;95639.78;;;14.67;93.98
56330;BME280;42236;48.058;10.632;2023-09-30T06:11:18;95646.09;;;14.71;93.82
56330;BME280;42236;48.058;10.632;2023-09-30T06:14:04;95642.03;;;14.77;94.25
56330;BME280;42236;48.058;10.632;2023-09-30T06:16:51;95646.06;;;14.83;93.88
56330;BME280;42236;48.058;10.632;2023-09-30T06:19:37;95656.03;;;14.91;93.50
56330;BME280;42236;48.058;10.632;2023-09-30T06:22:23;95658.28;;;15.02;93.46
56330;BME280;42236;48.058;10.632;2023-09-30T06:25:09;95650.31;;;15.09;93.67
56330;BME280;42236;48.058;10.632;2023-09-30T06:27:55;95649.75;;;15.15;93.58
56330;BME280;42236;48.058;10.632;2023-09-30T06:30:41;95648.47;;;15.25;93.70
56330;BME280;42236;48.058;10.632;2023-09-30T06:33:28;95652.97;;;15.33;93.48
56330;BME280;42236;48.058;10.632;2023-09-30T06:36:15;95663.69;;;15.42;92.94
56330;BME280;42236;48.058;10.632;2023-09-30T06:39:00;95653.03;;;15.49;92.76
56330;BME280;42236;48.058;10.632;2023-09-30T06:41:51;95656.28;;;15.55;93.00
56330;BME280;42236;48.058;10.632;2023-09-30T06:44:37;95668.91;;;15.63;92.92
56330;BME280;42236;48.058;10.632;2023-09-30T06:47:23;95666.88;;;15.72;92.72
56330;BME280;42236;48.058;10.632;2023-09-30T06:50:11;95674.97;;;15.85;92.17
56330;BME280;42236;48.058;10.632;2023-09-30T06:52:57;95684.13;;;15.92;92.08
56330;BME280;42236;48.058;10.632;2023-09-30T06:55:45;95688.50;;;15.97;91.93
56330;BME280;42236;48.058;10.632;2023-09-30T06:58:31;95683.94;;;16.01;91.91
56330;BME280;42236;48.058;10.632;2023-09-30T07:01:17;95676.31;;;16.07;91.74
56330;BME280;42236;48.058;10.632;2023-09-30T07:04:03;95681.84;;;16.10;90.78
56330;BME280;42236;48.058;10.632;2023-09-30T07:06:49;95704.09;;;16.12;90.36
56330;BME280;42236;48.058;10.632;2023-09-30T07:09:35;95700.22;;;16.13;90.00
56330;BME280;42236;48.058;10.632;2023-09-30T07:12:21;95701.53;;;16.19;90.42
56330;BME280;42236;48.058;10.632;2023-09-30T07:15:08;95688.38;;;16.21;89.78
56330;BME280;42236;48.058;10.632;2023-09-30T07:17:54;95697.59;;;16.17;89.26
56330;BME280;42236;48.058;10.632;2023-09-30T07:20:39;95699.75;;;16.11;89.39
56330;BME280;42236;48.058;10.632;2023-09-30T07:23:25;95707.16;;;16.11;89.52
56330;BME280;42236;48.058;10.632;2023-09-30T07:26:10;95715.38;;;15.98;89.47
56330;BME280;42236;48.058;10.632;2023-09-30T07:28:56;95718.25;;;15.90;89.66
56330;BME280;42236;48.058;10.632;2023-09-30T07:31:43;95717.63;;;15.81;89.73
56330;BME280;42236;48.058;10.632;2023-09-30T07:34:29;95720.09;;;15.86;90.08
56330;BME280;42236;48.058;10.632;2023-09-30T07:37:15;95728.91;;;15.95;90.03
56330;BME280;42236;48.058;10.632;2023-09-30T07:40:03;95731.38;;;16.00;89.72
56330;BME280;42236;48.058;10.632;2023-09-30T07:42:49;95717.44;;;16.17;88.96
56330;BME280;42236;48.058;10.632;2023-09-30T07:45:35;95727.53;;;16.33;88.57
56330;BME280;42236;48.058;10.632;2023-09-30T07:48:21;95720.69;;;16.39;88.17
56330;BME280;42236;48.058;10.632;2023-09-30T07:51:07;95716.81;;;16.40;88.17
56330;BME280;42236;48.058;10.632;2023-09-30T07:53:58;95731.66;;;16.42;87.65
56330;BME280;42236;48.058;10.632;2023-09-30T07:56:44;95734.13;;;16.32;88.13
56330;BME280;42236;48.058;10.632;2023-09-30T07:59:29;95728.84;;;16.23;87.77
56330;BME280;42236;48.058;10.632;2023-09-30T08:02:15;95731.31;;;16.28;86.63
56330;BME280;42236;48.058;10.632;2023-09-30T08:05:01;95741.72;;;16.38;86.29
56330;BME280;42236;48.058;10.632;2023-09-30T08:07:47;95731.06;;;16.49;86.33
56330;BME280;42236;48.058;10.632;2023-09-30T08:10:33;95720.28;;;16.53;85.46
56330;BME280;42236;48.058;10.632;2023-09-30T08:13:18;95727.63;;;16.52;85.31
56330;BME280;42236;48.058;10.632;2023-09-30T08:16:04;95731.34;;;16.60;84.67
56330;BME280;42236;48.058;10.632;2023-09-30T08:18:50;95737.38;;;16.69;84.41
56330;BME280;42236;48.058;10.632;2023-09-30T08:21:35;95742.66;;;16.78;84.21
56330;BME280;42236;48.058;10.632;2023-09-30T08:24:21;95737.66;;;16.96;83.64
56330;BME280;42236;48.058;10.632;2023-09-30T08:27:07;95737.03;;;17.02;83.37
56330;BME280;42236;48.058;10.632;2023-09-30T08:29:53;95751.28;;;17.12;83.27
56330;BME280;42236;48.058;10.632;2023-09-30T08:32:38;95757.38;;;17.24;82.92
56330;BME280;42236;48.058;10.632;2023-09-30T08:35:25;95741.41;;;17.23;82.28
56330;BME280;42236;48.058;10.632;2023-09-30T08:38:10;95720.13;;;17.13;82.66
56330;BME280;42236;48.058;10.632;2023-09-30T08:40:56;95731.56;;;17.18;82.09
56330;BME280;42236;48.058;10.632;2023-09-30T08:43:42;95740.59;;;17.22;81.87
56330;BME280;42236;48.058;10.632;2023-09-30T08:46:33;95739.03;;;17.21;81.17
56330;BME280;42236;48.058;10.632;2023-09-30T08:49:19;95745.69;;;17.24;81.75
56330;BME280;42236;48.058;10.632;2023-09-30T08:52:09;95746.84;;;17.23;80.95
56330;BME280;42236;48.058;10.632;2023-09-30T08:54:56;95749.38;;;17.32;80.49
56330;BME280;42236;48.058;10.632;2023-09-30T08:57:41;95757.66;;;17.55;80.16
56330;BME280;42236;48.058;10.632;2023-09-30T09:00:27;95758.50;;;17.59;79.46
56330;BME280;42236;48.058;10.632;2023-09-30T09:03:13;95747.69;;;17.62;79.46
56330;BME280;42236;48.058;10.632;2023-09-30T09:05:59;95752.56;;;17.73;79.50
56330;BME280;42236;48.058;10.632;2023-09-30T09:08:45;95749.19;;;17.79;79.12
56330;BME280;42236;48.058;10.632;2023-09-30T09:11:37;95753.31;;;17.89;77.50
56330;BME280;42236;48.058;10.632;2023-09-30T09:14:39;95753.66;;;17.87;74.59
56330;BME280;42236;48.058;10.632;2023-09-30T09:17:42;95753.38;;;17.92;77.63
56330;BME280;42236;48.058;10.632;2023-09-30T09:20:28;95756.09;;;18.12;78.03
56330;BME280;42236;48.058;10.632;2023-09-30T09:23:15;95748.03;;;18.19;76.92
56330;BME280;42236;48.058;10.632;2023-09-30T09:26:00;95739.56;;;18.05;76.91
56330;BME280;42236;48.058;10.632;2023-09-30T09:28:46;95734.53;;;18.07;77.01
56330;BME280;42236;48.058;10.632;2023-09-30T09:31:34;95710.41;;;18.09;76.98
56330;BME280;42236;48.058;10.632;2023-09-30T09:34:20;95713.56;;;18.11;77.00
56330;BME280;42236;48.058;10.632;2023-09-30T09:37:20;95718.72;;;18.16;75.23
56330;BME280;42236;48.058;10.632;2023-09-30T09:40:06;95714.72;;;18.10;76.12
56330;BME280;42236;48.058;10.632;2023-09-30T09:42:54;95716.91;;;18.24;76.47
56330;BME280;42236;48.058;10.632;2023-09-30T09:45:41;95716.13;;;18.23;76.11
56330;BME280;42236;48.058;10.632;2023-09-30T09:48:29;95702.63;;;18.11;76.10
56330;BME280;42236;48.058;10.632;2023-09-30T09:51:15;95706.41;;;18.03;75.82
56330;BME280;42236;48.058;10.632;2023-09-30T09:54:03;95705.97;;;18.01;75.86
56330;BME280;42236;48.058;10.632;2023-09-30T09:56:50;95712.22;;;18.01;74.56
56330;BME280;42236;48.058;10.632;2023-09-30T09:59:39;95714.16;;;18.01;75.33
56330;BME280;42236;48.058;10.632;2023-09-30T10:02:26;95716.75;;;17.94;74.53
56330;BME280;42236;48.058;10.632;2023-09-30T10:05:14;95707.84;;;17.97;74.33
56330;BME280;42236;48.058;10.632;2023-09-30T10:08:07;95710.56;;;17.97;73.31
56330;BME280;42236;48.058;10.632;2023-09-30T10:10:55;95713.44;;;18.04;72.80
56330;BME280;42236;48.058;10.632;2023-09-30T10:13:50;95709.25;;;18.10;72.13
56330;BME280;42236;48.058;10.632;2023-09-30T10:19:23;95713.72;;;18.41;72.28
56330;BME280;42236;48.058;10.632;2023-09-30T10:25:39;95715.63;;;18.64;72.34
56330;BME280;42236;48.058;10.632;2023-09-30T10:28:39;95718.72;;;18.62;71.59
56330;BME280;42236;48.058;10.632;2023-09-30T10:31:26;95714.75;;;18.56;72.07
56330;BME280;42236;48.058;10.632;2023-09-30T10:34:17;95713.69;;;18.64;72.46
56330;BME280;42236;48.058;10.632;2023-09-30T10:37:22;95706.81;;;18.74;70.19
56330;BME280;42236;48.058;10.632;2023-09-30T10:40:28;95700.31;;;18.82;67.25
56330;BME280;42236;48.058;10.632;2023-09-30T10:43:37;95699.84;;;18.76;66.07
56330;BME280;42236;48.058;10.632;2023-09-30T10:49:36;95688.56;;;18.78;70.12
56330;BME280;42236;48.058;10.632;2023-09-30T10:52:25;95687.41;;;18.56;68.66
56330;BME280;42236;48.058;10.632;2023-09-30T10:55:11;95685.50;;;18.60;69.04
56330;BME280;42236;48.058;10.632;2023-09-30T10:57:57;95683.63;;;18.64;68.94
56330;BME280;42236;48.058;10.632;2023-09-30T11:00:52;95689.31;;;18.55;68.56
56330;BME280;42236;48.058;10.632;2023-09-30T11:03:43;95684.38;;;18.61;69.44
56330;BME280;42236;48.058;10.632;2023-09-30T11:06:29;95685.25;;;18.69;68.86
56330;BME280;42236;48.058;10.632;2023-09-30T11:09:21;95685.81;;;18.78;66.57
56330;BME280;42236;48.058;10.632;2023-09-30T11:12:13;95686.03;;;18.92;68.78
56330;BME280;42236;48.058;10.632;2023-09-30T11:15:04;95688.06;;;18.99;66.11
56330;BME280;42236;48.058;10.632;2023-09-30T11:17:52;95683.78;;;18.98;67.26
56330;BME280;42236;48.058;10.632;2023-09-30T11:20:38;95689.66;;;19.00;67.48
56330;BME280;42236;48.058;10.632;2023-09-30T11:23:23;95687.03;;;19.07;66.74
56330;BME280;42236;48.058;10.632;2023-09-30T11:26:09;95683.31;;;19.23;66.85
56330;BME280;42236;48.058;10.632;2023-09-30T11:28:55;95682.66;;;19.33;65.83
56330;BME280;42236;48.058;10.632;2023-09-30T11:31:44;95688.56;;;19.35;66.19
56330;BME280;42236;48.058;10.632;2023-09-30T11:34:34;95687.00;;;19.34;63.42
56330;BME280;42236;48.058;10.632;2023-09-30T11:37:21;95678.22;;;19.51;65.54
56330;BME280;42236;48.058;10.632;2023-09-30T11:40:13;95680.63;;;19.56;61.88
56330;BME280;42236;48.058;10.632;2023-09-30T11:43:09;95661.25;;;19.69;63.27
56330;BME280;42236;48.058;10.632;2023-09-30T11:46:11;95665.25;;;19.78;64.59
56330;BME280;42236;48.058;10.632;2023-09-30T11:48:59;95655.25;;;19.93;64.55
56330;BME280;42236;48.058;10.632;2023-09-30T11:51:45;95658.16;;;19.74;63.89
56330;BME280;42236;48.058;10.632;2023-09-30T11:54:41;95656.31;;;19.51;61.03
56330;BME280;42236;48.058;10.632;2023-09-30T11:57:28;95663.50;;;19.63;64.46
56330;BME280;42236;48.058;10.632;2023-09-30T12:00:14;95648.16;;;19.89;64.43
56330;BME280;42236;48.058;10.632;2023-09-30T12:03:00;95656.91;;;20.05;64.43
56330;BME280;42236;48.058;10.632;2023-09-30T12:05:46;95646.88;;;20.16;63.80
56330;BME280;42236;48.058;10.632;2023-09-30T12:08:31;95644.22;;;20.27;62.78
56330;BME280;42236;48.058;10.632;2023-09-30T12:11:18;95640.41;;;20.39;62.60
56330;BME280;42236;48.058;10.632;2023-09-30T12:14:04;95637.75;;;20.50;62.30
56330;BME280;42236;48.058;10.632;2023-09-30T12:16:50;95637.84;;;20.60;62.27
56330;BME280;42236;48.058;10.632;2023-09-30T12:19:36;95639.09;;;20.70;62.07
56330;BME280;42236;48.058;10.632;2023-09-30T12:22:22;95634.69;;;20.58;61.40
56330;BME280;42236;48.058;10.632;2023-09-30T12:25:08;95626.25;;;20.33;60.39
56330;BME280;42236;48.058;10.632;2023-09-30T12:27:54;95619.22;;;20.32;59.54
56330;BME280;42236;48.058;10.632;2023-09-30T12:30:41;95619.28;;;20.43;60.15
56330;BME280;42236;48.058;10.632;2023-09-30T12:33:26;95619.28;;;20.39;60.70
56330;BME280;42236;48.058;10.632;2023-09-30T12:36:13;95626.25;;;20.30;61.09
56330;BME280;42236;48.058;10.632;2023-09-30T12:38:59;95624.88;;;20.09;61.33
56330;BME280;42236;48.058;10.632;2023-09-30T12:41:44;95621.66;;;20.00;61.86
56330;BME280;42236;48.058;10.632;2023-09-30T12:44:30;95615.34;;;19.92;60.65
56330;BME280;42236;48.058;10.632;2023-09-30T12:47:16;95620.66;;;19.78;59.90
56330;BME280;42236;48.058;10.632;2023-09-30T12:50:01;95620.53;;;19.67;59.41
56330;BME280;42236;48.058;10.632;2023-09-30T12:52:48;95623.63;;;19.66;60.37
56330;BME280;42236;48.058;10.632;2023-09-30T12:55:34;95616.78;;;19.79;60.14
56330;BME280;42236;48.058;10.632;2023-09-30T12:58:20;95607.38;;;19.80;59.88
56330;BME280;42236;48.058;10.632;2023-09-30T13:01:05;95628.53;;;19.83;60.24
56330;BME280;42236;48.058;10.632;2023-09-30T13:03:51;95636.03;;;19.86;60.18
56330;BME280;42236;48.058;10.632;2023-09-30T13:06:37;95626.28;;;19.92;60.16
56330;BME280;42236;48.058;10.632;2023-09-30T13:09:23;95627.13;;;19.96;59.59
56330;BME280;42236;48.058;10.632;2023-09-30T13:12:09;95622.44;;;20.00;59.85
56330;BME280;42236;48.058;10.632;2023-09-30T13:14:55;95623.28;;;20.04;59.48
56330;BME280;42236;48.058;10.632;2023-09-30T13:17:44;95618.56;;;20.01;58.09
56330;BME280;42236;48.058;10.632;2023-09-30T13:20:30;95620.38;;;19.87;59.18
56330;BME280;42236;48.058;10.632;2023-09-30T13:23:15;95622.63;;;19.77;59.02
56330;BME280;42236;48.058;10.632;2023-09-30T13:26:01;95615.25;;;19.85;58.65
56330;BME280;42236;48.058;10.632;2023-09-30T13:28:48;95613.69;;;19.84;58.75
56330;BME280;42236;48.058;10.632;2023-09-30T13:31:34;95616.47;;;19.88;58.04
56330;BME280;42236;48.058;10.632;2023-09-30T13:34:20;95623.09;;;19.87;57.95
56330;BME280;42236;48.058;10.632;2023-09-30T13:37:06;95619.97;;;19.88;58.03
56330;BME280;42236;48.058;10.632;2023-09-30T13:39:51;95617.63;;;19.87;57.17
56330;BME280;42236;48.058;10.632;2023-09-30T13:42:37;95615.13;;;19.71;57.79
56330;BME280;42236;48.058;10.632;2023-09-30T13:45:23;95625.06;;;19.52;57.78
56330;BME280;42236;48.058;10.632;2023-09-30T13:48:09;95610.28;;;19.60;58.35
56330;BME280;42236;48.058;10.632;2023-09-30T13:50:54;95600.03;;;19.50;58.13
56330;BME280;42236;48.058;10.632;2023-09-30T13:53:40;95609.44;;;19.56;58.50
56330;BME280;42236;48.058;10.632;2023-09-30T13:56:26;95612.53;;;19.51;58.50
56330;BME280;42236;48.058;10.632;2023-09-30T13:59:13;95616.53;;;19.57;58.48
56330;BME280;42236;48.058;10.632;2023-09-30T14:01:58;95622.00;;;19.57;58.11
56330;BME280;42236;48.058;10.632;2023-09-30T14:04:44;95615.78;;;19.64;57.65
56330;BME280;42236;48.058;10.632;2023-09-30T14:07:30;95606.00;;;19.63;57.51
56330;BME280;42236;48.058;10.632;2023-09-30T14:10:16;95604.41;;;19.58;57.36
56330;BME280;42236;48.058;10.632;2023-09-30T14:13:02;95601.88;;;19.76;57.41
56330;BME280;42236;48.058;10.632;2023-09-30T14:15:49;95601.53;;;19.81;56.56
56330;BME280;42236;48.058;10.632;2023-09-30T14:18:35;95593.41;;;19.92;57.03
56330;BME280;42236;48.058;10.632;2023-09-30T14:21:21;95593.13;;;20.04;56.97
56330;BME280;42236;48.058;10.632;2023-09-30T14:24:07;95594.03;;;20.16;56.39
56330;BME280;42236;48.058;10.632;2023-09-30T14:26:53;95589.03;;;20.29;56.56
56330;BME280;42236;48.058;10.632;2023-09-30T14:29:41;95575.81;;;20.41;56.39
56330;BME280;42236;48.058;10.632;2023-09-30T14:32:27;95587.19;;;20.43;56.31
56330;BME280;42236;48.058;10.632;2023-09-30T14:35:13;95585.97;;;20.37;56.70
56330;BME280;42236;48.058;10.632;2023-09-30T14:37:59;95587.13;;;20.33;56.58
56330;BME280;42236;48.058;10.632;2023-09-30T14:40:44;95591.41;;;20.30;56.15